createdAt,value
2023-05-16T00:01:57.673Z,99792.92
2023-05-16T00:04:24.742Z,99793.50
2023-05-16T00:06:51.604Z,99792.52
2023-05-16T00:09:18.220Z,99793.93
2023-05-16T00:11:44.913Z,99795.85
2023-05-16T00:14:11.760Z,99799.77
2023-05-16T00:16:39.244Z,99799.05
2023-05-16T00:19:06.739Z,99802.89
2023-05-16T00:21:33.433Z,99803.36
2023-05-16T00:24:00.039Z,99804.89
2023-05-16T00:26:26.673Z,99808.99
2023-05-16T00:28:53.323Z,99808.19
2023-05-16T00:31:20.210Z,99804.40
2023-05-16T00:33:46.864Z,99807.36
2023-05-16T00:36:13.471Z,99802.81
2023-05-16T00:38:40.084Z,99800.10
2023-05-16T00:41:06.743Z,99798.63
2023-05-16T00:43:33.369Z,99794.02
2023-05-16T00:46:01.192Z,99796.63
2023-05-16T00:48:28.688Z,99795.94
2023-05-16T00:50:55.321Z,99795.95
2023-05-16T00:53:22.842Z,99795.66
2023-05-16T00:55:49.460Z,99798.86
2023-05-16T00:58:16.496Z,99800.49
2023-05-16T01:00:43.148Z,99797.63
2023-05-16T01:03:09.874Z,99799.02
2023-05-16T01:05:37.933Z,99797.98
2023-05-16T01:08:06.181Z,99797.86
2023-05-16T01:10:40.458Z,99790.39
2023-05-16T01:13:19.904Z,99790.35
2023-05-16T01:16:11.235Z,99791.77
2023-05-16T01:18:49.144Z,99790.10
2023-05-16T01:21:21.691Z,99789.45
2023-05-16T01:23:52.755Z,99785.21
2023-05-16T01:26:23.752Z,99783.00
2023-05-16T01:28:51.537Z,99783.07
2023-05-16T01:31:19.369Z,99778.64
2023-05-16T01:33:46.262Z,99778.16
2023-05-16T01:36:26.501Z,99776.11
2023-05-16T01:39:14.294Z,99778.77
2023-05-16T01:41:57.609Z,99774.09
2023-05-16T01:44:29.695Z,99772.58
2023-05-16T01:46:58.473Z,99771.52
2023-05-16T01:49:31.346Z,99766.64
2023-05-16T01:52:05.568Z,99767.66
2023-05-16T01:54:33.589Z,99769.61
2023-05-16T01:57:02.074Z,99766.48
2023-05-16T01:59:28.633Z,99763.85
2023-05-16T02:01:59.505Z,99762.09
2023-05-16T02:04:26.442Z,99761.12
2023-05-16T02:06:53.034Z,99759.06
2023-05-16T02:09:19.707Z,99758.35
2023-05-16T02:11:47.204Z,99760.15
2023-05-16T02:14:13.967Z,99756.34
2023-05-16T02:16:40.676Z,99757.83
2023-05-16T02:19:07.644Z,99760.06
2023-05-16T02:21:34.595Z,99756.20
2023-05-16T02:24:01.754Z,99751.52
2023-05-16T02:26:28.369Z,99755.19
2023-05-16T02:28:55.074Z,99753.05
2023-05-16T02:31:29.430Z,99750.58
2023-05-16T02:33:57.161Z,99757.09
2023-05-16T02:36:24.038Z,99758.95
2023-05-16T02:38:50.730Z,99759.34
2023-05-16T02:41:17.343Z,99763.11
2023-05-16T02:43:47.161Z,99759.15
2023-05-16T02:46:28.217Z,99756.23
2023-05-16T02:48:54.906Z,99754.73
2023-05-16T02:51:22.913Z,99754.02
2023-05-16T02:53:49.644Z,99753.38
2023-05-16T02:56:16.456Z,99756.40
2023-05-16T02:58:43.183Z,99759.02
2023-05-16T03:01:09.930Z,99761.33
2023-05-16T03:03:37.255Z,99757.69
2023-05-16T03:06:04.041Z,99760.59
2023-05-16T03:08:33.311Z,99759.64
2023-05-16T03:10:59.922Z,99757.95
2023-05-16T03:13:26.521Z,99758.92
2023-05-16T03:15:53.220Z,99754.90
2023-05-16T03:18:19.964Z,99754.15
2023-05-16T03:20:46.692Z,99753.84
2023-05-16T03:23:13.826Z,99754.00
2023-05-16T03:25:40.631Z,99749.59
2023-05-16T03:28:08.002Z,99749.61
2023-05-16T03:30:35.005Z,99749.19
2023-05-16T03:33:01.910Z,99751.30
2023-05-16T03:35:28.789Z,99751.31
2023-05-16T03:37:55.813Z,99754.13
2023-05-16T03:40:22.478Z,99762.88
2023-05-16T03:42:49.671Z,99759.80
2023-05-16T03:45:16.297Z,99756.23
2023-05-16T03:47:43.104Z,99760.51
2023-05-16T03:50:10.088Z,99762.42
2023-05-16T03:52:36.734Z,99767.27
2023-05-16T03:55:04.327Z,99772.02
2023-05-16T03:57:31.674Z,99777.27
2023-05-16T03:59:58.320Z,99782.30
2023-05-16T04:02:25.039Z,99783.84
2023-05-16T04:04:51.749Z,99792.10
2023-05-16T04:07:18.394Z,99791.95
2023-05-16T04:09:45.243Z,99800.23
2023-05-16T04:12:11.957Z,99806.46
2023-05-16T04:14:38.561Z,99813.77
2023-05-16T04:17:05.864Z,99811.90
2023-05-16T04:19:32.565Z,99819.25
2023-05-16T04:21:59.285Z,99823.27
2023-05-16T04:24:28.898Z,99824.84
2023-05-16T04:26:55.678Z,99827.82
2023-05-16T04:29:22.294Z,99831.36
2023-05-16T04:31:49.063Z,99836.34
2023-05-16T04:34:16.046Z,99837.17
2023-05-16T04:36:42.835Z,99840.02
2023-05-16T04:39:09.440Z,99839.48
2023-05-16T04:41:36.185Z,99837.55
2023-05-16T04:44:04.610Z,99841.10
2023-05-16T04:46:31.461Z,99845.98
2023-05-16T04:48:58.246Z,99852.91
2023-05-16T04:51:25.090Z,99850.55
2023-05-16T04:53:51.936Z,99849.75
2023-05-16T04:56:19.060Z,99844.70
2023-05-16T04:58:46.071Z,99840.50
2023-05-16T05:01:12.704Z,99837.18
2023-05-16T05:03:39.410Z,99836.98
2023-05-16T05:06:06.368Z,99834.92
2023-05-16T05:08:33.003Z,99831.73
2023-05-16T05:10:59.584Z,99824.66
2023-05-16T05:13:26.192Z,99824.73
2023-05-16T05:15:52.864Z,99826.89
2023-05-16T05:18:19.628Z,99828.02
2023-05-16T05:20:46.380Z,99825.85
2023-05-16T05:23:13.264Z,99824.64
2023-05-16T05:25:40.946Z,99825.81
2023-05-16T05:28:07.480Z,99829.98
2023-05-16T05:30:34.062Z,99833.38
2023-05-16T05:33:00.767Z,99836.86
2023-05-16T05:35:27.790Z,99841.46
2023-05-16T05:37:54.646Z,99844.54
2023-05-16T05:40:21.295Z,99846.21
2023-05-16T05:42:47.975Z,99846.12
2023-05-16T05:45:16.108Z,99845.77
2023-05-16T05:47:43.027Z,99844.23
2023-05-16T05:50:11.499Z,99843.65
2023-05-16T05:52:38.432Z,99837.33
2023-05-16T05:55:05.795Z,99838.41
2023-05-16T05:57:32.452Z,99830.34
2023-05-16T05:59:59.049Z,99833.91
2023-05-16T06:02:25.762Z,99834.80
2023-05-16T06:04:52.482Z,99839.70
2023-05-16T06:07:19.527Z,99843.45
2023-05-16T06:09:46.398Z,99842.78
2023-05-16T06:12:13.010Z,99834.57
2023-05-16T06:14:39.611Z,99830.55
2023-05-16T06:17:06.288Z,99827.45
2023-05-16T06:19:33.112Z,99823.85
2023-05-16T06:21:59.705Z,99822.91
2023-05-16T06:24:26.463Z,99821.67
2023-05-16T06:26:53.270Z,99814.73
2023-05-16T06:29:19.849Z,99810.15
2023-05-16T06:31:47.420Z,99806.02
2023-05-16T06:34:17.120Z,99807.64
2023-05-16T06:36:44.739Z,99807.55
2023-05-16T06:39:11.798Z,99807.04
2023-05-16T06:41:38.436Z,99804.20
2023-05-16T06:44:05.192Z,99799.55
2023-05-16T06:46:32.954Z,99793.41
2023-05-16T06:48:59.729Z,99792.52
2023-05-16T06:51:26.418Z,99792.62
2023-05-16T06:53:53.087Z,99791.20
2023-05-16T06:56:20.210Z,99783.11
2023-05-16T06:58:46.972Z,99783.20
2023-05-16T07:01:13.685Z,99784.44
2023-05-16T07:03:40.553Z,99803.21
2023-05-16T07:06:07.498Z,99802.33
2023-05-16T07:08:36.031Z,99800.79
2023-05-16T07:11:02.687Z,99803.44
2023-05-16T07:13:29.342Z,99810.14
2023-05-16T07:15:56.112Z,99805.73
2023-05-16T07:18:22.789Z,99808.81
2023-05-16T07:20:49.809Z,99810.20
2023-05-16T07:23:16.446Z,99809.34
2023-05-16T07:25:43.347Z,99805.26
2023-05-16T07:28:10.385Z,99810.73
2023-05-16T07:30:37.047Z,99817.54
2023-05-16T07:33:03.785Z,99824.25
2023-05-16T07:35:30.703Z,99830.78
2023-05-16T07:37:57.456Z,99828.89
2023-05-16T07:40:28.372Z,99830.92
2023-05-16T07:42:55.332Z,99829.67
2023-05-16T07:45:22.014Z,99831.80
2023-05-16T07:47:48.737Z,99834.21
2023-05-16T07:50:15.536Z,99835.95
2023-05-16T07:52:42.204Z,99836.98
2023-05-16T07:55:09.748Z,99843.44
2023-05-16T07:57:36.404Z,99845.95
2023-05-16T08:00:05.150Z,99848.97
2023-05-16T08:02:38.634Z,99846.26
2023-05-16T08:05:06.160Z,99842.34
2023-05-16T08:07:32.965Z,99843.42
2023-05-16T08:09:59.528Z,99842.38
2023-05-16T08:12:27.412Z,99839.55
2023-05-16T08:14:54.001Z,99839.33
2023-05-16T08:17:20.849Z,99843.08
2023-05-16T08:19:47.445Z,99848.79
2023-05-16T08:22:14.180Z,99849.33
2023-05-16T08:24:41.329Z,99851.77
2023-05-16T08:27:08.965Z,99847.09
2023-05-16T08:29:35.809Z,99846.33
2023-05-16T08:32:02.395Z,99848.59
2023-05-16T08:34:31.221Z,99846.59
2023-05-16T08:36:57.805Z,99846.35
2023-05-16T08:39:24.441Z,99844.67
2023-05-16T08:41:51.095Z,99837.31
2023-05-16T08:44:21.805Z,99836.45
2023-05-16T08:46:51.410Z,99834.52
2023-05-16T08:49:18.193Z,99835.77
2023-05-16T08:51:45.798Z,99829.79
2023-05-16T08:54:13.583Z,99829.00
2023-05-16T08:56:41.477Z,99831.54
2023-05-16T08:59:08.127Z,99831.89
2023-05-16T09:01:34.944Z,99830.42
2023-05-16T09:04:01.806Z,99835.61
2023-05-16T09:06:29.004Z,99833.13
2023-05-16T09:08:55.656Z,99836.94
2023-05-16T09:11:22.459Z,99839.34
2023-05-16T09:13:49.279Z,99840.02
2023-05-16T09:16:16.648Z,99836.67
2023-05-16T09:18:44.869Z,99840.24
2023-05-16T09:21:11.706Z,99843.77
2023-05-16T09:23:38.354Z,99848.70
2023-05-16T09:26:08.290Z,99844.10
2023-05-16T09:28:37.328Z,99844.46
2023-05-16T09:31:04.200Z,99844.79
2023-05-16T09:33:31.066Z,99846.89
2023-05-16T09:36:01.063Z,99850.58
2023-05-16T09:38:27.962Z,99854.41
2023-05-16T09:40:54.903Z,99856.61
2023-05-16T09:43:26.384Z,99859.02
2023-05-16T09:45:53.000Z,99851.45
2023-05-16T09:48:19.951Z,99854.34
2023-05-16T09:50:52.436Z,99855.30
2023-05-16T09:53:26.484Z,99854.42
2023-05-16T09:56:02.597Z,99857.92
2023-05-16T09:58:32.618Z,99859.88
2023-05-16T10:00:59.399Z,99867.59
2023-05-16T10:03:26.641Z,99866.80
2023-05-16T10:05:53.910Z,99868.23
2023-05-16T10:08:21.609Z,99871.66
2023-05-16T10:10:50.054Z,99868.05
2023-05-16T10:13:18.908Z,99860.17
2023-05-16T10:15:45.761Z,99858.35
2023-05-16T10:18:13.538Z,99857.66
2023-05-16T10:20:41.610Z,99852.86
2023-05-16T10:23:08.554Z,99852.80
2023-05-16T10:25:41.778Z,99855.90
2023-05-16T10:28:08.766Z,99857.75
2023-05-16T10:30:35.931Z,99853.16
2023-05-16T10:33:02.844Z,99843.96
2023-05-16T10:35:29.712Z,99846.29
2023-05-16T10:37:56.806Z,99846.13
2023-05-16T10:40:23.386Z,99840.90
2023-05-16T10:42:56.483Z,99842.30
2023-05-16T10:45:23.478Z,99841.13
2023-05-16T10:47:57.106Z,99844.45
2023-05-16T10:50:43.776Z,99841.73
2023-05-16T10:53:17.721Z,99840.73
2023-05-16T10:55:45.054Z,99846.18
2023-05-16T10:58:11.672Z,99842.88
2023-05-16T11:00:39.377Z,99835.40
2023-05-16T11:03:06.526Z,99837.06
2023-05-16T11:05:33.338Z,99836.95
2023-05-16T11:08:04.490Z,99839.11
2023-05-16T11:10:31.100Z,99836.40
2023-05-16T11:13:02.416Z,99835.74
2023-05-16T11:15:31.468Z,99833.70
2023-05-16T11:18:05.236Z,99828.43
2023-05-16T11:20:32.755Z,99821.91
2023-05-16T11:23:22.761Z,99822.45
2023-05-16T11:25:54.058Z,99825.26
2023-05-16T11:28:20.948Z,99821.21
2023-05-16T11:30:49.664Z,99817.92
2023-05-16T11:33:16.958Z,99824.09
2023-05-16T11:35:44.301Z,99824.21
2023-05-16T11:38:16.692Z,99823.05
2023-05-16T11:40:44.560Z,99822.14
2023-05-16T11:43:11.646Z,99825.80
2023-05-16T11:45:38.272Z,99831.36
2023-05-16T11:48:05.177Z,99831.19
2023-05-16T11:50:34.118Z,99832.88
2023-05-16T11:53:01.641Z,99835.20
2023-05-16T11:55:41.366Z,99834.98
2023-05-16T11:58:08.907Z,99833.73
2023-05-16T12:00:35.762Z,99838.02
2023-05-16T12:03:04.693Z,99835.28
2023-05-16T12:05:33.109Z,99832.49
2023-05-16T12:08:00.528Z,99835.70
2023-05-16T12:10:27.390Z,99828.41
2023-05-16T12:12:55.491Z,99834.30
2023-05-16T12:15:22.154Z,99834.98
2023-05-16T12:17:48.868Z,99834.40
2023-05-16T12:20:16.402Z,99834.39
2023-05-16T12:22:43.821Z,99834.91
2023-05-16T12:25:30.741Z,99837.75
2023-05-16T12:27:58.438Z,99834.33
2023-05-16T12:30:25.816Z,99832.04
2023-05-16T12:32:59.642Z,99829.02
2023-05-16T12:35:27.036Z,99833.70
2023-05-16T12:37:53.638Z,99834.72
2023-05-16T12:40:20.967Z,99833.20
2023-05-16T12:42:51.648Z,99832.79
2023-05-16T12:45:18.776Z,99835.59
2023-05-16T12:47:45.849Z,99834.94
2023-05-16T12:50:14.539Z,99829.20
2023-05-16T12:52:50.930Z,99825.90
2023-05-16T12:55:18.524Z,99822.00
2023-05-16T12:57:45.642Z,99819.59
2023-05-16T13:00:12.802Z,99817.42
2023-05-16T13:02:39.509Z,99816.19
2023-05-16T13:05:10.351Z,99818.61
2023-05-16T13:07:37.510Z,99812.48
2023-05-16T13:10:04.487Z,99812.21
2023-05-16T13:12:31.187Z,99812.98
2023-05-16T13:14:57.779Z,99810.05
2023-05-16T13:17:24.428Z,99813.40
2023-05-16T13:19:51.603Z,99814.20
2023-05-16T13:22:18.166Z,99812.55
2023-05-16T13:24:44.811Z,99815.40
2023-05-16T13:27:14.337Z,99815.38
2023-05-16T13:29:41.534Z,99817.23
2023-05-16T13:32:08.399Z,99811.34
2023-05-16T13:34:35.429Z,99806.64
2023-05-16T13:37:02.305Z,99800.02
2023-05-16T13:39:28.914Z,99797.08
2023-05-16T13:41:55.718Z,99799.55
2023-05-16T13:44:22.699Z,99795.83
2023-05-16T13:46:49.601Z,99795.87
2023-05-16T13:49:16.225Z,99796.13
2023-05-16T13:51:43.059Z,99797.28
2023-05-16T13:54:09.707Z,99799.99
2023-05-16T13:56:36.318Z,99803.07
2023-05-16T13:59:06.986Z,99806.58
2023-05-16T14:01:34.572Z,99809.71
2023-05-16T14:04:01.431Z,99811.19
2023-05-16T14:06:28.452Z,99807.80
2023-05-16T14:08:55.035Z,99810.86
2023-05-16T14:11:28.888Z,99812.95
2023-05-16T14:13:56.147Z,99810.24
2023-05-16T14:16:22.998Z,99810.45
2023-05-16T14:18:49.629Z,99809.11
2023-05-16T14:21:16.214Z,99803.85
2023-05-16T14:23:42.841Z,99802.41
2023-05-16T14:26:09.403Z,99803.98
2023-05-16T14:28:36.331Z,99805.84
2023-05-16T14:31:03.460Z,99805.52
2023-05-16T14:33:31.177Z,99806.20
2023-05-16T14:35:58.327Z,99809.36
2023-05-16T14:38:25.167Z,99809.89
2023-05-16T14:40:51.872Z,99807.85
2023-05-16T14:43:18.478Z,99809.93
2023-05-16T14:45:45.144Z,99806.09
2023-05-16T14:48:11.841Z,99807.77
2023-05-16T14:50:38.560Z,99810.30
2023-05-16T14:53:05.194Z,99808.64
2023-05-16T14:55:31.805Z,99812.57
2023-05-16T14:58:00.113Z,99811.05
2023-05-16T15:00:27.521Z,99809.61
2023-05-16T15:02:54.436Z,99808.63
2023-05-16T15:05:21.278Z,99806.50
2023-05-16T15:07:48.561Z,99807.52
2023-05-16T15:10:15.201Z,99807.98
2023-05-16T15:12:43.355Z,99807.02
2023-05-16T15:15:12.550Z,99806.71
2023-05-16T15:17:41.612Z,99809.95
2023-05-16T15:20:09.518Z,99809.27
2023-05-16T15:22:36.348Z,99811.15
2023-05-16T15:25:04.596Z,99808.60
2023-05-16T15:27:31.714Z,99808.08
2023-05-16T15:29:58.570Z,99808.20
2023-05-16T15:32:26.099Z,99812.67
2023-05-16T15:34:52.873Z,99810.94
2023-05-16T15:37:19.532Z,99811.88
2023-05-16T15:39:46.317Z,99817.55
2023-05-16T15:42:13.006Z,99817.17
2023-05-16T15:44:39.902Z,99816.45
2023-05-16T15:47:06.838Z,99814.39
2023-05-16T15:49:33.446Z,99817.17
2023-05-16T15:52:00.038Z,99810.70
2023-05-16T15:54:27.599Z,99811.27
2023-05-16T15:56:54.425Z,99809.86
2023-05-16T15:59:21.009Z,99811.15
2023-05-16T16:01:47.683Z,99812.35
2023-05-16T16:04:14.320Z,99817.29
2023-05-16T16:06:40.884Z,99818.61
2023-05-16T16:09:08.181Z,99820.79
2023-05-16T16:11:34.915Z,99822.13
2023-05-16T16:14:01.605Z,99821.05
2023-05-16T16:16:28.241Z,99818.86
2023-05-16T16:18:54.899Z,99819.64
2023-05-16T16:21:21.645Z,99818.87
2023-05-16T16:23:48.253Z,99815.21
2023-05-16T16:26:14.862Z,99810.27
2023-05-16T16:28:41.494Z,99808.36
2023-05-16T16:31:08.131Z,99810.89
2023-05-16T16:33:35.014Z,99812.16
2023-05-16T16:36:01.849Z,99811.27
2023-05-16T16:38:28.486Z,99811.22
2023-05-16T16:40:55.291Z,99810.77
2023-05-16T16:43:21.874Z,99813.52
2023-05-16T16:45:48.490Z,99814.48
2023-05-16T16:48:15.108Z,99815.27
2023-05-16T16:50:41.748Z,99816.77
2023-05-16T16:53:08.548Z,99820.73
2023-05-16T16:55:35.993Z,99821.40
2023-05-16T16:58:03.441Z,99821.16
2023-05-16T17:00:30.057Z,99818.20
2023-05-16T17:02:56.941Z,99819.27
2023-05-16T17:05:23.767Z,99820.11
2023-05-16T17:07:50.356Z,99821.17
2023-05-16T17:10:16.980Z,99819.80
2023-05-16T17:12:49.175Z,99819.73
2023-05-16T17:15:17.394Z,99818.44
2023-05-16T17:17:44.877Z,99819.34
2023-05-16T17:20:12.734Z,99816.56
2023-05-16T17:22:41.110Z,99816.79
2023-05-16T17:25:10.532Z,99818.98
2023-05-16T17:27:37.192Z,99816.20
2023-05-16T17:30:04.810Z,99818.45
2023-05-16T17:32:31.847Z,99819.52
2023-05-16T17:35:03.295Z,99818.96
2023-05-16T17:37:30.343Z,99817.54
2023-05-16T17:39:57.705Z,99814.56
2023-05-16T17:42:24.705Z,99814.88
2023-05-16T17:44:51.287Z,99818.23
2023-05-16T17:47:19.573Z,99817.02
2023-05-16T17:49:46.885Z,99820.15
2023-05-16T17:52:14.712Z,99820.71
2023-05-16T17:54:41.408Z,99823.55
2023-05-16T17:57:08.841Z,99820.78
2023-05-16T17:59:35.704Z,99819.17
2023-05-16T18:02:03.999Z,99821.96
2023-05-16T18:04:30.650Z,99819.54
2023-05-16T18:06:57.427Z,99826.08
2023-05-16T18:09:24.383Z,99824.91
2023-05-16T18:11:51.552Z,99826.84
2023-05-16T18:14:18.221Z,99826.14
2023-05-16T18:16:44.886Z,99827.86
2023-05-16T18:19:11.705Z,99824.84
2023-05-16T18:21:38.973Z,99830.29
2023-05-16T18:24:08.567Z,99827.95
2023-05-16T18:26:35.286Z,99829.55
2023-05-16T18:29:02.844Z,99827.25
2023-05-16T18:31:30.732Z,99828.25
2023-05-16T18:33:57.602Z,99832.67
2023-05-16T18:36:24.261Z,99833.92
2023-05-16T18:38:50.933Z,99831.92
2023-05-16T18:41:17.687Z,99832.06
2023-05-16T18:43:44.642Z,99833.33
2023-05-16T18:46:11.221Z,99833.17
2023-05-16T18:48:38.077Z,99834.30
2023-05-16T18:51:04.696Z,99834.39
2023-05-16T18:53:31.366Z,99831.78
2023-05-16T18:55:58.681Z,99830.98
2023-05-16T18:58:25.330Z,99830.96
2023-05-16T19:00:51.977Z,99830.39
2023-05-16T19:03:19.314Z,99829.00
2023-05-16T19:05:46.339Z,99831.47
2023-05-16T19:08:13.098Z,99829.44
2023-05-16T19:10:41.698Z,99829.64
2023-05-16T19:13:08.996Z,99827.22
2023-05-16T19:15:35.815Z,99830.55
2023-05-16T19:18:02.796Z,99831.64
2023-05-16T19:20:29.737Z,99828.30
2023-05-16T19:22:56.874Z,99824.70
2023-05-16T19:25:23.482Z,99825.98
2023-05-16T19:27:50.374Z,99826.60
2023-05-16T19:30:17.045Z,99831.09
2023-05-16T19:32:43.998Z,99832.42
2023-05-16T19:35:10.957Z,99829.48
2023-05-16T19:37:37.668Z,99830.33
2023-05-16T19:40:04.817Z,99830.21
2023-05-16T19:42:31.666Z,99826.86
2023-05-16T19:44:58.596Z,99826.23
2023-05-16T19:47:25.263Z,99827.88
2023-05-16T19:49:51.917Z,99827.09
2023-05-16T19:52:18.515Z,99826.50
2023-05-16T19:54:45.242Z,99827.81
2023-05-16T19:57:12.022Z,99823.66
2023-05-16T19:59:38.678Z,99826.48
2023-05-16T20:02:05.315Z,99823.39
2023-05-16T20:04:31.915Z,99825.13
2023-05-16T20:06:58.559Z,99826.10
2023-05-16T20:09:25.277Z,99823.97
2023-05-16T20:11:53.641Z,99822.20
2023-05-16T20:14:21.051Z,99826.64
2023-05-16T20:16:47.960Z,99829.79
2023-05-16T20:19:15.478Z,99830.00
2023-05-16T20:21:42.171Z,99830.73
2023-05-16T20:24:08.821Z,99828.63
2023-05-16T20:26:35.744Z,99827.13
2023-05-16T20:29:02.330Z,99825.73
2023-05-16T20:31:28.911Z,99825.02
2023-05-16T20:33:55.701Z,99824.36
2023-05-16T20:36:22.374Z,99827.33
2023-05-16T20:38:49.274Z,99827.73
2023-05-16T20:41:15.873Z,99828.86
2023-05-16T20:43:42.548Z,99829.81
2023-05-16T20:46:09.345Z,99829.27
2023-05-16T20:48:35.998Z,99827.45
2023-05-16T20:51:02.704Z,99827.61
2023-05-16T20:53:29.312Z,99826.73
2023-05-16T20:55:55.896Z,99826.45
2023-05-16T20:58:22.483Z,99823.82
2023-05-16T21:00:49.064Z,99826.78
2023-05-16T21:03:15.834Z,99824.53
2023-05-16T21:05:42.416Z,99821.02
2023-05-16T21:08:09.093Z,99823.10
2023-05-16T21:10:35.695Z,99821.30
2023-05-16T21:13:02.300Z,99818.30
2023-05-16T21:15:29.128Z,99820.45
2023-05-16T21:17:56.346Z,99819.23
2023-05-16T21:20:23.178Z,99817.98
2023-05-16T21:22:49.767Z,99818.36
2023-05-16T21:25:16.881Z,99822.90
2023-05-16T21:27:43.448Z,99816.66
2023-05-16T21:30:10.290Z,99813.87
2023-05-16T21:32:36.926Z,99815.78
2023-05-16T21:35:04.827Z,99810.95
2023-05-16T21:37:31.522Z,99815.58
2023-05-16T21:39:58.451Z,99812.75
2023-05-16T21:42:25.115Z,99816.97
2023-05-16T21:44:52.055Z,99813.77
2023-05-16T21:47:18.880Z,99811.99
2023-05-16T21:49:45.623Z,99810.09
2023-05-16T21:52:12.479Z,99813.30
2023-05-16T21:54:39.058Z,99811.31
2023-05-16T21:57:06.543Z,99810.52
2023-05-16T21:59:33.175Z,99806.42
2023-05-16T22:01:59.835Z,99808.42
2023-05-16T22:04:27.070Z,99808.36
2023-05-16T22:06:53.789Z,99810.05
2023-05-16T22:09:20.594Z,99806.52
2023-05-16T22:11:47.149Z,99808.80
2023-05-16T22:14:13.777Z,99813.16
2023-05-16T22:16:40.586Z,99813.49
2023-05-16T22:19:07.821Z,99812.67
2023-05-16T22:21:34.490Z,99810.56
2023-05-16T22:24:01.121Z,99813.50
2023-05-16T22:26:27.726Z,99815.45
2023-05-16T22:28:54.324Z,99817.33
2023-05-16T22:31:21.227Z,99816.52
2023-05-16T22:33:48.016Z,99823.37
2023-05-16T22:36:14.687Z,99827.91
2023-05-16T22:38:41.241Z,99828.15
2023-05-16T22:41:07.984Z,99831.02
2023-05-16T22:43:34.569Z,99827.95
2023-05-16T22:46:03.134Z,99825.92
2023-05-16T22:48:30.379Z,99829.02
2023-05-16T22:50:57.345Z,99833.00
2023-05-16T22:53:24.025Z,99832.20
2023-05-16T22:55:50.881Z,99834.34
2023-05-16T22:58:17.928Z,99833.53
2023-05-16T23:00:44.510Z,99836.72
2023-05-16T23:03:11.380Z,99834.10
2023-05-16T23:05:38.037Z,99834.27
2023-05-16T23:08:04.812Z,99834.86
2023-05-16T23:10:31.716Z,99835.61
2023-05-16T23:12:58.532Z,99836.55
2023-05-16T23:15:25.145Z,99830.84
2023-05-16T23:17:51.871Z,99834.63
2023-05-16T23:20:18.550Z,99828.89
2023-05-16T23:22:45.101Z,99826.47
2023-05-16T23:25:11.697Z,99830.74
2023-05-16T23:27:38.280Z,99829.00
2023-05-16T23:30:05.176Z,99828.53
2023-05-16T23:32:31.763Z,99829.05
2023-05-16T23:34:58.497Z,99833.00
2023-05-16T23:37:25.218Z,99828.51
2023-05-16T23:39:51.800Z,99829.48
2023-05-16T23:42:18.704Z,99831.66
2023-05-16T23:44:46.366Z,99836.84
2023-05-16T23:47:13.077Z,99836.52
2023-05-16T23:49:40.711Z,99833.34
2023-05-16T23:52:07.431Z,99833.20
2023-05-16T23:54:34.217Z,99836.32
2023-05-16T23:57:00.961Z,99834.73
2023-05-16T23:59:27.578Z,99833.67
